sensor_id;sensor_type;location;lat;lon;timestamp;P1;P2;P0
74426;PMS7003;62859;53.906;27.430;2023-03-23T00:03:47;13.3;12.5;8.3
74426;PMS7003;62859;53.906;27.430;2023-03-23T00:09:22;11.7;11.3;7.3
74426;PMS7003;62859;53.906;27.430;2023-03-23T00:13:55;14.7;11.3;8
74426;PMS7003;62859;53.906;27.430;2023-03-23T00:18:47;14.7;13.7;8.3
74426;PMS7003;62859;53.906;27.430;2023-03-23T00:24:09;16.8;14;9.3
74426;PMS7003;62859;53.906;27.430;2023-03-23T00:29:01;13;12.3;9.3
74426;PMS7003;62859;53.906;27.430;2023-03-23T00:34:24;15.7;13.3;9.7
74426;PMS7003;62859;53.906;27.430;2023-03-23T00:38:46;14;13;9
74426;PMS7003;62859;53.906;27.430;2023-03-23T00:43:46;16.3;14.8;9.8
74426;PMS7003;62859;53.906;27.430;2023-03-23T00:49:04;15.3;12.7;9.3
74426;PMS7003;62859;53.906;27.430;2023-03-23T00:53:46;13.3;12.7;9.3
74426;PMS7003;62859;53.906;27.430;2023-03-23T00:59:23;15.3;13.7;9.7
74426;PMS7003;62859;53.906;27.430;2023-03-23T01:03:46;15;13.3;9.8
74426;PMS7003;62859;53.906;27.430;2023-03-23T01:08:46;16;13;10
74426;PMS7003;62859;53.906;27.430;2023-03-23T01:14:06;14.3;13.7;9.3
74426;PMS7003;62859;53.906;27.430;2023-03-23T01:18:47;17.7;16;10.7
74426;PMS7003;62859;53.906;27.430;2023-03-23T01:24:22;15.8;14.5;10.8
74426;PMS7003;62859;53.906;27.430;2023-03-23T01:28:58;19;17.3;12
74426;PMS7003;62859;53.906;27.430;2023-03-23T01:33:36;19;15.7;10.3
74426;PMS7003;62859;53.906;27.430;2023-03-23T01:39:08;19.5;17.3;11.5
74426;PMS7003;62859;53.906;27.430;2023-03-23T01:43:52;20;18.3;12.7
74426;PMS7003;62859;53.906;27.430;2023-03-23T01:49:25;19;15.3;10.7
74426;PMS7003;62859;53.906;27.430;2023-03-23T01:53:37;17.3;15.3;11.7
74426;PMS7003;62859;53.906;27.430;2023-03-23T01:58:46;19;16.8;12
74426;PMS7003;62859;53.906;27.430;2023-03-23T02:04:08;24;21;15.3
74426;PMS7003;62859;53.906;27.430;2023-03-23T02:08:47;20.7;18;11.7
74426;PMS7003;62859;53.906;27.430;2023-03-23T02:14:23;21;18.7;13.3
74426;PMS7003;62859;53.906;27.430;2023-03-23T02:18:39;21;19;14.3
74426;PMS7003;62859;53.906;27.430;2023-03-23T02:23:52;20;17.3;14.3
74426;PMS7003;62859;53.906;27.430;2023-03-23T02:29:13;24.3;21.7;17
74426;PMS7003;62859;53.906;27.430;2023-03-23T02:33:38;21.3;18;12.3
74426;PMS7003;62859;53.906;27.430;2023-03-23T02:39:19;20;17.8;13.3
74426;PMS7003;62859;53.906;27.430;2023-03-23T02:43:38;22.7;20.7;13
74426;PMS7003;62859;53.906;27.430;2023-03-23T02:48:37;23;21;14
74426;PMS7003;62859;53.906;27.430;2023-03-23T02:54:08;22;20.3;16
74426;PMS7003;62859;53.906;27.430;2023-03-23T02:58:36;23.3;20.3;13.8
74426;PMS7003;62859;53.906;27.430;2023-03-23T03:04:21;23.3;20.7;14.3
74426;PMS7003;62859;53.906;27.430;2023-03-23T03:08:57;24.3;22;15
74426;PMS7003;62859;53.906;27.430;2023-03-23T03:14:24;24.3;20.3;14.7
74426;PMS7003;62859;53.906;27.430;2023-03-23T03:19:06;20.5;18.3;13.5
74426;PMS7003;62859;53.906;27.430;2023-03-23T03:23:36;19.7;16.7;12
74426;PMS7003;62859;53.906;27.430;2023-03-23T03:29:23;18.7;18.7;13.3
74426;PMS7003;62859;53.906;27.430;2023-03-23T03:33:54;19;16.5;11.8
74426;PMS7003;62859;53.906;27.430;2023-03-23T03:39:20;23;20.3;13.3
74426;PMS7003;62859;53.906;27.430;2023-03-23T03:44:03;20.7;18.3;12
74426;PMS7003;62859;53.906;27.430;2023-03-23T03:48:46;22.3;20;13
74426;PMS7003;62859;53.906;27.430;2023-03-23T03:54:22;23.3;20;12.3
74426;PMS7003;62859;53.906;27.430;2023-03-23T03:58:36;21.3;19;12.3
74426;PMS7003;62859;53.906;27.430;2023-03-23T04:04:22;21.3;20;13
74426;PMS7003;62859;53.906;27.430;2023-03-23T04:09:06;21.3;19;13
74426;PMS7003;62859;53.906;27.430;2023-03-23T04:14:02;19.8;18;12.8
74426;PMS7003;62859;53.906;27.430;2023-03-23T04:19:18;20;17.3;12
74426;PMS7003;62859;53.906;27.430;2023-03-23T04:23:56;23.7;20.3;12.7
74426;PMS7003;62859;53.906;27.430;2023-03-23T04:29:20;22;20.3;12.7
74426;PMS7003;62859;53.906;27.430;2023-03-23T04:34:06;24.3;21;12.8
74426;PMS7003;62859;53.906;27.430;2023-03-23T04:38:46;19.3;18.7;12.7
74426;PMS7003;62859;53.906;27.430;2023-03-23T04:44:22;23.3;20;12.7
74426;PMS7003;62859;53.906;27.430;2023-03-23T04:48:52;26.7;21.7;14
74426;PMS7003;62859;53.906;27.430;2023-03-23T04:54:21;25;21.5;14.3
74426;PMS7003;62859;53.906;27.430;2023-03-23T04:59:05;23;19.3;12
74426;PMS7003;62859;53.906;27.430;2023-03-23T05:03:37;21.3;20;14.7
74426;PMS7003;62859;53.906;27.430;2023-03-23T05:09:21;24.3;20.3;14.3
74426;PMS7003;62859;53.906;27.430;2023-03-23T05:13:57;23.8;21;13.5
74426;PMS7003;62859;53.906;27.430;2023-03-23T05:19:07;25.3;22.7;15
74426;PMS7003;62859;53.906;27.430;2023-03-23T05:24:05;22;21.3;14.3
74426;PMS7003;62859;53.906;27.430;2023-03-23T05:28:49;22.3;19.5;12.5
74426;PMS7003;62859;53.906;27.430;2023-03-23T05:34:19;21.7;19;14
74426;PMS7003;62859;53.906;27.430;2023-03-23T05:38:37;18.3;18;12
74426;PMS7003;62859;53.906;27.430;2023-03-23T05:44:21;24;19.7;13
74426;PMS7003;62859;53.906;27.430;2023-03-23T05:49:07;19.5;18;12.3
74426;PMS7003;62859;53.906;27.430;2023-03-23T05:53:37;20.7;18.3;12.7
74426;PMS7003;62859;53.906;27.430;2023-03-23T05:59:21;23.3;20;13.7
74426;PMS7003;62859;53.906;27.430;2023-03-23T06:03:45;21;20.3;13
74426;PMS7003;62859;53.906;27.430;2023-03-23T06:09:21;22;19;12.5
74426;PMS7003;62859;53.906;27.430;2023-03-23T06:14:05;19.7;18.7;12.7
74426;PMS7003;62859;53.906;27.430;2023-03-23T06:19:09;25.3;20.3;14.7
74426;PMS7003;62859;53.906;27.430;2023-03-23T06:24:13;23;21;13.3
74426;PMS7003;62859;53.906;27.430;2023-03-23T06:29:15;20.5;19.3;13.8
74426;PMS7003;62859;53.906;27.430;2023-03-23T06:33:49;20.3;19.7;13.7
74426;PMS7003;62859;53.906;27.430;2023-03-23T06:39:05;20;19;13
74426;PMS7003;62859;53.906;27.430;2023-03-23T06:43:37;24;20;14
74426;PMS7003;62859;53.906;27.430;2023-03-23T06:49:21;19.5;17.5;13.8
74426;PMS7003;62859;53.906;27.430;2023-03-23T06:53:37;21;19;14.3
74426;PMS7003;62859;53.906;27.430;2023-03-23T06:59:23;21.7;19.7;13.7
74426;PMS7003;62859;53.906;27.430;2023-03-23T07:04:23;21.3;20;13.3
74426;PMS7003;62859;53.906;27.430;2023-03-23T07:08:37;23.8;19;12.3
74426;PMS7003;62859;53.906;27.430;2023-03-23T07:14:23;21.3;18.7;14
74426;PMS7003;62859;53.906;27.430;2023-03-23T07:18:55;22.7;21.3;13.3
74426;PMS7003;62859;53.906;27.430;2023-03-23T07:24:21;22.8;18.8;12.8
74426;PMS7003;62859;53.906;27.430;2023-03-23T07:29:07;20.3;17.3;12.7
74426;PMS7003;62859;53.906;27.430;2023-03-23T07:33:37;22.7;22;15
74426;PMS7003;62859;53.906;27.430;2023-03-23T07:39:23;21.7;20;13.3
74426;PMS7003;62859;53.906;27.430;2023-03-23T07:44:21;20.8;18.3;12.3
74426;PMS7003;62859;53.906;27.430;2023-03-23T07:49:21;21.3;18.3;12.7
74426;PMS7003;62859;53.906;27.430;2023-03-23T07:54:07;22.3;19;13.3
74426;PMS7003;62859;53.906;27.430;2023-03-23T07:58:37;19.7;17.3;11.3
74426;PMS7003;62859;53.906;27.430;2023-03-23T08:04:21;20.3;16.8;11.3
74426;PMS7003;62859;53.906;27.430;2023-03-23T08:08:37;21.3;16.7;12
74426;PMS7003;62859;53.906;27.430;2023-03-23T08:14:21;19;18;12.3
74426;PMS7003;62859;53.906;27.430;2023-03-23T08:19:05;20.7;18.3;13
74426;PMS7003;62859;53.906;27.430;2023-03-23T08:23:37;20;18;12.5
74426;PMS7003;62859;53.906;27.430;2023-03-23T08:29:23;18.3;17;12
74426;PMS7003;62859;53.906;27.430;2023-03-23T08:33:57;18;16.3;11
74426;PMS7003;62859;53.906;27.430;2023-03-23T08:39:21;21;19;12
74426;PMS7003;62859;53.906;27.430;2023-03-23T08:43:49;20;17.8;11.5
74426;PMS7003;62859;53.906;27.430;2023-03-23T08:49:01;24.7;20.3;14
74426;PMS7003;62859;53.906;27.430;2023-03-23T08:54:19;20.3;18.3;13
74426;PMS7003;62859;53.906;27.430;2023-03-23T08:58:47;23.7;18.3;12
74426;PMS7003;62859;53.906;27.430;2023-03-23T09:04:19;21.3;19;13.5
74426;PMS7003;62859;53.906;27.430;2023-03-23T09:09:03;20;18.3;13
74426;PMS7003;62859;53.906;27.430;2023-03-23T09:14:03;19.7;17.3;11.7
74426;PMS7003;62859;53.906;27.430;2023-03-23T09:19:19;21;20.5;13.5
74426;PMS7003;62859;53.906;27.430;2023-03-23T09:24:13;22.7;20.3;13
74426;PMS7003;62859;53.906;27.430;2023-03-23T09:29:23;20;18;13.3
74426;PMS7003;62859;53.906;27.430;2023-03-23T09:34:21;23.3;22;13.3
74426;PMS7003;62859;53.906;27.430;2023-03-23T09:38:47;20.3;17.5;13
74426;PMS7003;62859;53.906;27.430;2023-03-23T09:44:22;20.3;17.7;11
74426;PMS7003;62859;53.906;27.430;2023-03-23T09:48:57;23.3;20.7;14
74426;PMS7003;62859;53.906;27.430;2023-03-23T09:54:26;21;19.3;13.3
74426;PMS7003;62859;53.906;27.430;2023-03-23T09:59:10;19.3;17.5;12.3
74426;PMS7003;62859;53.906;27.430;2023-03-23T10:03:52;23.7;22;14.7
74426;PMS7003;62859;53.906;27.430;2023-03-23T10:09:23;20.3;18;12.3
74426;PMS7003;62859;53.906;27.430;2023-03-23T10:14:02;20.3;19;14
74426;PMS7003;62859;53.906;27.430;2023-03-23T10:19:24;21.3;19;13.3
74426;PMS7003;62859;53.906;27.430;2023-03-23T10:24:01;20.7;19.3;14.3
74426;PMS7003;62859;53.906;27.430;2023-03-23T10:28:37;24;23;14.3
74426;PMS7003;62859;53.906;27.430;2023-03-23T10:34:27;22.7;20.7;13.3
74426;PMS7003;62859;53.906;27.430;2023-03-23T10:38:45;21.8;19.8;13.5
74426;PMS7003;62859;53.906;27.430;2023-03-23T10:44:25;22.7;20;14
74426;PMS7003;62859;53.906;27.430;2023-03-23T10:49:26;24;21.7;14.3
74426;PMS7003;62859;53.906;27.430;2023-03-23T10:53:37;23.7;20.7;14
74426;PMS7003;62859;53.906;27.430;2023-03-23T10:59:27;24.8;21.3;15
74426;PMS7003;62859;53.906;27.430;2023-03-23T11:03:49;21;18.7;13.3
74426;PMS7003;62859;53.906;27.430;2023-03-23T11:09:14;25.3;22.3;15.3
74426;PMS7003;62859;53.906;27.430;2023-03-23T11:14:15;22.8;20.8;15
74426;PMS7003;62859;53.906;27.430;2023-03-23T11:18:38;25.3;21;16
74426;PMS7003;62859;53.906;27.430;2023-03-23T11:24:25;22;20;14.7
74426;PMS7003;62859;53.906;27.430;2023-03-23T11:29:01;22;20.7;15.3
74426;PMS7003;62859;53.906;27.430;2023-03-23T11:34:24;24;20.8;14.3
74426;PMS7003;62859;53.906;27.430;2023-03-23T11:39:18;20.3;19.3;13.7
74426;PMS7003;62859;53.906;27.430;2023-03-23T11:43:39;26.3;22;14.3
74426;PMS7003;62859;53.906;27.430;2023-03-23T11:49:27;23;21.7;15
74426;PMS7003;62859;53.906;27.430;2023-03-23T11:53:50;24.3;19.5;14.5
74426;PMS7003;62859;53.906;27.430;2023-03-23T11:59:27;21;18.7;13.7
74426;PMS7003;62859;53.906;27.430;2023-03-23T12:04:08;22.3;21;13.7
74426;PMS7003;62859;53.906;27.430;2023-03-23T12:08:52;23;20;14.3
74426;PMS7003;62859;53.906;27.430;2023-03-23T12:14:26;23;21.3;14.5
74426;PMS7003;62859;53.906;27.430;2023-03-23T12:19:01;24;21.7;15.3
74426;PMS7003;62859;53.906;27.430;2023-03-23T12:24:12;24.3;21.7;15
74426;PMS7003;62859;53.906;27.430;2023-03-23T12:29:26;24.3;22.3;14.7
74426;PMS7003;62859;53.906;27.430;2023-03-23T12:34:02;22.3;20.8;14
74426;PMS7003;62859;53.906;27.430;2023-03-23T12:39:58;24.7;20.3;15
74426;PMS7003;62859;53.906;27.430;2023-03-23T12:43:48;22.3;19.7;15
74426;PMS7003;62859;53.906;27.430;2023-03-23T12:48:39;21;18.3;13.7
74426;PMS7003;62859;53.906;27.430;2023-03-23T12:54:24;21.8;21;14.5
74426;PMS7003;62859;53.906;27.430;2023-03-23T12:58:48;22.3;20.7;15
74426;PMS7003;62859;53.906;27.430;2023-03-23T13:04:23;22;19.7;13.7
74426;PMS7003;62859;53.906;27.430;2023-03-23T13:08:37;22.5;20.5;13.8
74426;PMS7003;62859;53.906;27.430;2023-03-23T13:14:16;23.3;19.3;13.3
74426;PMS7003;62859;53.906;27.430;2023-03-23T13:19:25;17.7;16.3;12
74426;PMS7003;62859;53.906;27.430;2023-03-23T13:23:48;17.3;15.3;11.7
74426;PMS7003;62859;53.906;27.430;2023-03-23T13:29:23;20;18.3;12
74426;PMS7003;62859;53.906;27.430;2023-03-23T13:34:00;17.7;16;12
74426;PMS7003;62859;53.906;27.430;2023-03-23T13:39:17;18.7;17.7;12.7
74426;PMS7003;62859;53.906;27.430;2023-03-23T13:44:25;19.7;19;13
74426;PMS7003;62859;53.906;27.430;2023-03-23T13:49:05;22;18.8;13.5
74426;PMS7003;62859;53.906;27.430;2023-03-23T13:54:24;20.3;20.3;13.7
74426;PMS7003;62859;53.906;27.430;2023-03-23T13:59:32;20.7;19;13.7
74426;PMS7003;62859;53.906;27.430;2023-03-23T14:04:13;21.7;19;13.7
74426;PMS7003;62859;53.906;27.430;2023-03-23T14:09:23;19.5;19;14.3
74426;PMS7003;62859;53.906;27.430;2023-03-23T14:13:58;22.7;20.3;13.3
74426;PMS7003;62859;53.906;27.430;2023-03-23T14:19:25;21.3;19.7;14.7
74426;PMS7003;62859;53.906;27.430;2023-03-23T14:23:45;23.3;19.3;13.7
74426;PMS7003;62859;53.906;27.430;2023-03-23T14:29:11;20.5;18.5;13.5
74426;PMS7003;62859;53.906;27.430;2023-03-23T14:34:24;20;19.3;13.3
74426;PMS7003;62859;53.906;27.430;2023-03-23T14:38:37;22;20.7;15.7
74426;PMS7003;62859;53.906;27.430;2023-03-23T14:44:24;22;19.7;14.7
74426;PMS7003;62859;53.906;27.430;2023-03-23T14:49:11;19.8;18.8;13.3
74426;PMS7003;62859;53.906;27.430;2023-03-23T14:54:13;19.7;19.3;13.7
74426;PMS7003;62859;53.906;27.430;2023-03-23T14:59:00;19;17.3;13.7
74426;PMS7003;62859;53.906;27.430;2023-03-23T15:03:38;20;17.8;13
74426;PMS7003;62859;53.906;27.430;2023-03-23T15:09:27;20;18.3;13.3
74426;PMS7003;62859;53.906;27.430;2023-03-23T15:13:50;17.3;16;12.3
74426;PMS7003;62859;53.906;27.430;2023-03-23T15:19:15;16.3;15.3;11.7
74426;PMS7003;62859;53.906;27.430;2023-03-23T15:24:31;16.8;16;12.3
74426;PMS7003;62859;53.906;27.430;2023-03-23T15:28:47;16.7;14.7;11
74426;PMS7003;62859;53.906;27.430;2023-03-23T15:34:25;18.3;16;12
74426;PMS7003;62859;53.906;27.430;2023-03-23T15:39:01;18.7;16;13.3
74426;PMS7003;62859;53.906;27.430;2023-03-23T15:44:20;17;15.3;11.5
74426;PMS7003;62859;53.906;27.430;2023-03-23T15:49:25;18.3;16.7;11.7
74426;PMS7003;62859;53.906;27.430;2023-03-23T15:53:50;18.3;17.7;13.3
74426;PMS7003;62859;53.906;27.430;2023-03-23T15:59:25;17.3;15.7;12.7
74426;PMS7003;62859;53.906;27.430;2023-03-23T16:03:38;20;18.8;13.8
74426;PMS7003;62859;53.906;27.430;2023-03-23T16:09:03;19.3;18.7;13.7
74426;PMS7003;62859;53.906;27.430;2023-03-23T16:14:23;19;16.7;13
74426;PMS7003;62859;53.906;27.430;2023-03-23T16:18:37;18;15.7;12.3
74426;PMS7003;62859;53.906;27.430;2023-03-23T16:23:53;20.3;19;13.5
74426;PMS7003;62859;53.906;27.430;2023-03-23T16:29:17;19.3;18;14.3
74426;PMS7003;62859;53.906;27.430;2023-03-23T16:34:23;23.7;21;15
74426;PMS7003;62859;53.906;27.430;2023-03-23T16:39:01;22;19.3;14.3
74426;PMS7003;62859;53.906;27.430;2023-03-23T16:43:37;21.5;20;14.8
74426;PMS7003;62859;53.906;27.430;2023-03-23T16:48:37;21;19;13.7
74426;PMS7003;62859;53.906;27.430;2023-03-23T16:54:15;19;17.7;13.3
74426;PMS7003;62859;53.906;27.430;2023-03-23T16:59:27;19.3;17.5;12.5
74426;PMS7003;62859;53.906;27.430;2023-03-23T17:04:01;21;18.7;13
74426;PMS7003;62859;53.906;27.430;2023-03-23T17:08:37;19.7;17.7;13
74426;PMS7003;62859;53.906;27.430;2023-03-23T17:13:43;21.7;19.3;14.3
74426;PMS7003;62859;53.906;27.430;2023-03-23T17:19:11;18.8;17.5;13.3
74426;PMS7003;62859;53.906;27.430;2023-03-23T17:24:23;18.3;18.3;12.3
74426;PMS7003;62859;53.906;27.430;2023-03-23T17:29:21;17;15;11.3
74426;PMS7003;62859;53.906;27.430;2023-03-23T17:33:47;19.7;18.7;13.3
74426;PMS7003;62859;53.906;27.430;2023-03-23T17:38:55;18.5;17.3;13
74426;PMS7003;62859;53.906;27.430;2023-03-23T17:44:15;20.7;17;12.7
74426;PMS7003;62859;53.906;27.430;2023-03-23T17:49:23;18.7;17.7;13
74426;PMS7003;62859;53.906;27.430;2023-03-23T17:54:13;19.3;17.7;13
74426;PMS7003;62859;53.906;27.430;2023-03-23T17:58:49;19.8;17.5;12.5
74426;PMS7003;62859;53.906;27.430;2023-03-23T18:03:55;18;17;12.3
74426;PMS7003;62859;53.906;27.430;2023-03-23T18:09:25;17;15.3;11.7
74426;PMS7003;62859;53.906;27.430;2023-03-23T18:14:17;16.3;15.7;10.7
74426;PMS7003;62859;53.906;27.430;2023-03-23T18:19:25;16.3;15;12
74426;PMS7003;62859;53.906;27.430;2023-03-23T18:24:25;17;15.7;11.7
74426;PMS7003;62859;53.906;27.430;2023-03-23T18:29:01;15.7;15;11
74426;PMS7003;62859;53.906;27.430;2023-03-23T18:34:13;16;14.7;11.3
74426;PMS7003;62859;53.906;27.430;2023-03-23T18:39:23;14.5;14;10.5
74426;PMS7003;62859;53.906;27.430;2023-03-23T18:44:03;14.7;14.3;10.7
74426;PMS7003;62859;53.906;27.430;2023-03-23T18:48:37;15;14;10.3
74426;PMS7003;62859;53.906;27.430;2023-03-23T18:53:55;14.5;13.3;9.8
74426;PMS7003;62859;53.906;27.430;2023-03-23T18:58:37;11.3;11;9.3
74426;PMS7003;62859;53.906;27.430;2023-03-23T19:04:23;14;12.7;9.3
74426;PMS7003;62859;53.906;27.430;2023-03-23T19:09:15;13.7;11;9
74426;PMS7003;62859;53.906;27.430;2023-03-23T19:13:49;10;9.5;7.8
74426;PMS7003;62859;53.906;27.430;2023-03-23T19:18:49;10.7;10;8.7
74426;PMS7003;62859;53.906;27.430;2023-03-23T19:24:15;11.7;11;8.3
74426;PMS7003;62859;53.906;27.430;2023-03-23T19:29:25;11;10;7.7
74426;PMS7003;62859;53.906;27.430;2023-03-23T19:34:15;11.3;10.8;7.8
74426;PMS7003;62859;53.906;27.430;2023-03-23T19:38:45;11.3;10.3;8
74426;PMS7003;62859;53.906;27.430;2023-03-23T19:43:57;11;10;7.7
74426;PMS7003;62859;53.906;27.430;2023-03-23T19:48:59;12;10;7.3
74426;PMS7003;62859;53.906;27.430;2023-03-23T19:54:25;12;10.8;7.5
74426;PMS7003;62859;53.906;27.430;2023-03-23T19:59:13;9.7;9;7.7
74426;PMS7003;62859;53.906;27.430;2023-03-23T20:03:49;10;8.3;6.7
74426;PMS7003;62859;53.906;27.430;2023-03-23T20:09:25;10.7;10.7;8
74426;PMS7003;62859;53.906;27.430;2023-03-23T20:14:02;9.3;8;6.8
74426;PMS7003;62859;53.906;27.430;2023-03-23T20:19:25;7.7;7.3;5.7
74426;PMS7003;62859;53.906;27.430;2023-03-23T20:23:59;9.3;8;6.7
74426;PMS7003;62859;53.906;27.430;2023-03-23T20:28:37;9;7.3;6
74426;PMS7003;62859;53.906;27.430;2023-03-23T20:33:58;9.3;8.3;6.3
74426;PMS7003;62859;53.906;27.430;2023-03-23T20:38:53;9;8.3;6.3
74426;PMS7003;62859;53.906;27.430;2023-03-23T20:44:21;9;8;7
74426;PMS7003;62859;53.906;27.430;2023-03-23T20:49:01;9;8;6.5
74426;PMS7003;62859;53.906;27.430;2023-03-23T20:53:49;9;8.3;7
74426;PMS7003;62859;53.906;27.430;2023-03-23T20:58:43;9.3;8.7;7
74426;PMS7003;62859;53.906;27.430;2023-03-23T21:03:47;9.3;8.3;7.3
74426;PMS7003;62859;53.906;27.430;2023-03-23T21:09:23;12.3;10.8;8.3
74426;PMS7003;62859;53.906;27.430;2023-03-23T21:14:15;17.7;15.7;11.3
74426;PMS7003;62859;53.906;27.430;2023-03-23T21:18:47;12;10.7;8.3
74426;PMS7003;62859;53.906;27.430;2023-03-23T21:23:55;14;12;9.3
74426;PMS7003;62859;53.906;27.430;2023-03-23T21:28:49;11.3;10.8;8.5
74426;PMS7003;62859;53.906;27.430;2023-03-23T21:34:25;11.7;9;7.7
74426;PMS7003;62859;53.906;27.430;2023-03-23T21:39:15;11.3;10.3;8.7
74426;PMS7003;62859;53.906;27.430;2023-03-23T21:43:37;11.3;10.3;8.7
74426;PMS7003;62859;53.906;27.430;2023-03-23T21:49:09;12.3;10.8;8.8
74426;PMS7003;62859;53.906;27.430;2023-03-23T21:53:37;10;9.3;7
74426;PMS7003;62859;53.906;27.430;2023-03-23T21:59:13;5;4.7;4
74426;PMS7003;62859;53.906;27.430;2023-03-23T22:04:15;3;3;2.3
74426;PMS7003;62859;53.906;27.430;2023-03-23T22:08:53;3.3;2.8;2.3
74426;PMS7003;62859;53.906;27.430;2023-03-23T22:14:09;1.3;1.3;1
74426;PMS7003;62859;53.906;27.430;2023-03-23T22:18:37;1.7;1.3;1
74426;PMS7003;62859;53.906;27.430;2023-03-23T22:24:25;1.3;1;1
74426;PMS7003;62859;53.906;27.430;2023-03-23T22:29:17;1;1;1
74426;PMS7003;62859;53.906;27.430;2023-03-23T22:33:48;1.7;1.7;1
74426;PMS7003;62859;53.906;27.430;2023-03-23T22:39:09;1.7;1.7;1.3
74426;PMS7003;62859;53.906;27.430;2023-03-23T22:43:49;2;1.5;0.8
74426;PMS7003;62859;53.906;27.430;2023-03-23T22:49:25;1.7;1.7;1.3
74426;PMS7003;62859;53.906;27.430;2023-03-23T22:54:17;1.7;1.7;1.3
74426;PMS7003;62859;53.906;27.430;2023-03-23T22:58:47;7;5.7;3.7
74426;PMS7003;62859;53.906;27.430;2023-03-23T23:03:55;4;2.8;2
74426;PMS7003;62859;53.906;27.430;2023-03-23T23:08:59;9.7;9.3;6.3
74426;PMS7003;62859;53.906;27.430;2023-03-23T23:14:27;9;8.7;5.7
74426;PMS7003;62859;53.906;27.430;2023-03-23T23:19:05;3;2.7;2
74426;PMS7003;62859;53.906;27.430;2023-03-23T23:23:37;11.8;9.8;6.5
74426;PMS7003;62859;53.906;27.430;2023-03-23T23:28:55;2;2;1.3
74426;PMS7003;62859;53.906;27.430;2023-03-23T23:33:56;8;7;5
74426;PMS7003;62859;53.906;27.430;2023-03-23T23:39:23;4.7;4.3;3.3
74426;PMS7003;62859;53.906;27.430;2023-03-23T23:44:15;2.3;2.3;1.3
74426;PMS7003;62859;53.906;27.430;2023-03-23T23:48:58;3;1.7;1
74426;PMS7003;62859;53.906;27.430;2023-03-23T23:53:37;3;2.7;1.7
74426;PMS7003;62859;53.906;27.430;2023-03-23T23:58:37;1;1;1
